createdAt,value
2023-05-14T00:00:08.497Z,101337.98
2023-05-14T00:05:31.269Z,101346.32
2023-05-14T00:10:34.222Z,101336.41
2023-05-14T00:15:37.054Z,101331.47
2023-05-14T00:20:40.918Z,101324.45
2023-05-14T00:25:43.688Z,101321.14
2023-05-14T00:30:46.572Z,101317.61
2023-05-14T00:35:49.412Z,101315.80
2023-05-14T00:40:52.211Z,101316.98
2023-05-14T00:45:55.150Z,101312.78
2023-05-14T00:50:57.898Z,101313.58
2023-05-14T00:56:00.681Z,101314.42
2023-05-14T01:01:03.532Z,101313.07
2023-05-14T01:06:19.847Z,101313.02
2023-05-14T01:11:43.916Z,101311.65
2023-05-14T01:16:46.856Z,101313.70
2023-05-14T01:21:49.706Z,101314.89
2023-05-14T01:26:53.466Z,101315.70
2023-05-14T01:31:59.120Z,101311.73
2023-05-14T01:37:01.964Z,101306.72
2023-05-14T01:42:05.896Z,101304.21
2023-05-14T01:47:08.695Z,101301.31
2023-05-14T01:52:12.133Z,101298.25
2023-05-14T01:57:14.861Z,101296.34
2023-05-14T02:02:17.702Z,101299.23
2023-05-14T02:07:20.799Z,101297.58
2023-05-14T02:12:23.697Z,101294.54
2023-05-14T02:17:26.490Z,101291.11
2023-05-14T02:22:29.356Z,101291.40
2023-05-14T02:27:32.298Z,101287.81
2023-05-14T02:32:37.836Z,101280.01
2023-05-14T02:37:40.771Z,101278.80
2023-05-14T02:42:43.512Z,101271.91
2023-05-14T02:47:46.372Z,101283.36
2023-05-14T02:52:49.239Z,101286.39
2023-05-14T02:57:53.299Z,101293.90
2023-05-14T03:02:56.209Z,101290.63
2023-05-14T03:07:59.329Z,101291.13
2023-05-14T03:13:02.066Z,101291.12
2023-05-14T03:18:04.985Z,101288.98
2023-05-14T03:23:07.795Z,101290.14
2023-05-14T03:28:10.559Z,101288.16
2023-05-14T03:33:13.313Z,101277.13
2023-05-14T03:38:16.356Z,101278.00
2023-05-14T03:43:19.105Z,101280.84
2023-05-14T03:48:21.923Z,101278.40
2023-05-14T03:53:24.782Z,101272.39
2023-05-14T03:58:27.550Z,101269.61
2023-05-14T04:03:30.778Z,101263.10
2023-05-14T04:08:33.834Z,101262.15
2023-05-14T04:13:36.762Z,101259.73
2023-05-14T04:18:40.241Z,101259.41
2023-05-14T04:23:43.075Z,101266.63
2023-05-14T04:28:45.844Z,101268.91
2023-05-14T04:33:48.666Z,101270.81
2023-05-14T04:38:51.687Z,101271.89
2023-05-14T04:43:56.408Z,101275.70
2023-05-14T04:48:59.177Z,101275.21
2023-05-14T04:54:01.952Z,101277.34
2023-05-14T04:59:04.754Z,101272.17
2023-05-14T05:04:26.228Z,101264.61
2023-05-14T05:09:29.124Z,101267.69
2023-05-14T05:14:31.905Z,101268.95
2023-05-14T05:19:43.078Z,101267.14
2023-05-14T05:24:49.125Z,101265.52
2023-05-14T05:29:52.737Z,101264.70
2023-05-14T05:34:55.866Z,101263.75
2023-05-14T05:39:58.655Z,101263.20
2023-05-14T05:45:01.394Z,101265.34
2023-05-14T05:50:05.013Z,101259.27
2023-05-14T05:55:08.374Z,101262.79
2023-05-14T06:00:15.294Z,101261.48
2023-05-14T06:05:19.319Z,101260.56
2023-05-14T06:10:22.342Z,101258.20
2023-05-14T06:15:25.618Z,101256.95
2023-05-14T06:20:28.408Z,101259.58
2023-05-14T06:25:31.382Z,101259.58
2023-05-14T06:30:34.269Z,101255.26
2023-05-14T06:35:37.079Z,101259.92
2023-05-14T06:40:39.932Z,101254.15
2023-05-14T06:45:42.779Z,101254.80
2023-05-14T06:50:47.244Z,101249.77
2023-05-14T06:55:50.127Z,101248.84
2023-05-14T07:00:52.941Z,101245.02
2023-05-14T07:05:55.728Z,101242.14
2023-05-14T07:10:58.659Z,101241.15
2023-05-14T07:16:01.443Z,101237.79
2023-05-14T07:21:07.712Z,101241.09
2023-05-14T07:26:10.888Z,101238.44
2023-05-14T07:31:13.794Z,101233.05
2023-05-14T07:36:16.607Z,101229.13
2023-05-14T07:41:19.459Z,101224.05
2023-05-14T07:46:22.395Z,101225.86
2023-05-14T07:51:28.266Z,101217.09
2023-05-14T07:56:31.439Z,101211.99
2023-05-14T08:01:34.203Z,101205.98
2023-05-14T08:06:37.561Z,101202.59
2023-05-14T08:11:41.769Z,101198.70
2023-05-14T08:16:44.559Z,101198.63
2023-05-14T08:21:47.350Z,101191.38
2023-05-14T08:26:50.120Z,101181.11
2023-05-14T08:31:52.916Z,101182.13
2023-05-14T08:36:55.732Z,101175.80
2023-05-14T08:41:58.649Z,101168.60
2023-05-14T08:47:01.417Z,101166.86
2023-05-14T08:52:07.411Z,101162.69
2023-05-14T08:57:10.706Z,101159.50
2023-05-14T09:02:15.125Z,101158.19
2023-05-14T09:07:20.720Z,101152.77
2023-05-14T09:12:23.616Z,101147.52
2023-05-14T09:17:27.976Z,101144.36
2023-05-14T09:22:33.373Z,101141.67
2023-05-14T09:27:36.567Z,101140.23
2023-05-14T09:32:44.057Z,101145.67
2023-05-14T09:37:49.500Z,101140.29
2023-05-14T09:42:52.218Z,101134.85
2023-05-14T09:47:56.642Z,101136.63
2023-05-14T09:52:59.522Z,101130.94
2023-05-14T09:58:02.434Z,101131.88
2023-05-14T10:03:08.181Z,101124.34
2023-05-14T10:08:26.919Z,101116.56
2023-05-14T10:13:38.152Z,101112.42
2023-05-14T10:18:43.517Z,101109.84
2023-05-14T10:23:46.437Z,101107.00
2023-05-14T10:28:49.534Z,101101.45
2023-05-14T10:33:58.019Z,101095.11
2023-05-14T10:39:04.508Z,101092.79
2023-05-14T10:44:09.981Z,101084.26
2023-05-14T10:49:13.044Z,101083.66
2023-05-14T10:54:16.968Z,101079.29
2023-05-14T10:59:19.797Z,101070.09
2023-05-14T11:04:27.200Z,101067.45
2023-05-14T11:09:30.037Z,101055.90
2023-05-14T11:14:34.948Z,101043.58
2023-05-14T11:19:37.831Z,101035.41
2023-05-14T11:24:42.527Z,101029.95
2023-05-14T11:29:46.321Z,101020.81
2023-05-14T11:34:49.209Z,101016.48
2023-05-14T11:39:54.798Z,101014.59
2023-05-14T11:44:57.624Z,101009.88
2023-05-14T11:50:01.220Z,100984.69
2023-05-14T11:55:04.485Z,100971.35
2023-05-14T12:00:13.614Z,100958.91
2023-05-14T12:05:16.666Z,100956.98
2023-05-14T12:10:19.588Z,100948.91
2023-05-14T12:15:24.791Z,100945.27
2023-05-14T12:20:28.706Z,100939.45
2023-05-14T12:25:31.723Z,100938.77
2023-05-14T12:30:38.117Z,100932.45
2023-05-14T12:35:41.910Z,100922.21
2023-05-14T12:40:44.757Z,100919.11
2023-05-14T12:45:47.479Z,100908.75
2023-05-14T12:50:51.297Z,100908.84
2023-05-14T12:55:54.790Z,100904.85
2023-05-14T13:00:57.915Z,100901.59
2023-05-14T13:06:01.320Z,100889.73
2023-05-14T13:11:04.271Z,100893.42
2023-05-14T13:16:07.398Z,100883.14
2023-05-14T13:21:10.182Z,100878.71
2023-05-14T13:26:13.040Z,100874.80
2023-05-14T13:31:16.362Z,100869.70
2023-05-14T13:36:19.169Z,100869.10
2023-05-14T13:41:22.268Z,100863.25
2023-05-14T13:46:25.192Z,100865.11
2023-05-14T13:51:28.170Z,100856.41
2023-05-14T13:56:31.028Z,100852.50
2023-05-14T14:01:33.876Z,100844.50
2023-05-14T14:06:36.696Z,100836.62
2023-05-14T14:11:41.019Z,100822.42
2023-05-14T14:16:44.356Z,100818.26
2023-05-14T14:21:47.392Z,100810.09
2023-05-14T14:26:50.266Z,100801.84
2023-05-14T14:31:53.485Z,100792.64
2023-05-14T14:36:56.583Z,100781.08
2023-05-14T14:41:59.930Z,100773.52
2023-05-14T14:47:02.677Z,100770.80
2023-05-14T14:52:05.558Z,100774.21
2023-05-14T14:57:08.638Z,100770.98
2023-05-14T15:02:11.444Z,100766.49
2023-05-14T15:07:16.530Z,100757.52
2023-05-14T15:12:19.254Z,100752.98
2023-05-14T15:17:22.133Z,100749.57
2023-05-14T15:22:24.933Z,100746.97
2023-05-14T15:27:27.824Z,100741.71
2023-05-14T15:32:30.773Z,100740.30
2023-05-14T15:37:42.004Z,100734.39
2023-05-14T15:42:44.906Z,100730.63
2023-05-14T15:48:08.097Z,100728.30
2023-05-14T15:53:10.970Z,100733.38
2023-05-14T15:58:13.937Z,100729.61
2023-05-14T16:03:17.450Z,100720.08
2023-05-14T16:08:20.346Z,100719.94
2023-05-14T16:13:23.121Z,100716.23
2023-05-14T16:18:26.317Z,100712.19
2023-05-14T16:23:29.314Z,100706.52
2023-05-14T16:28:34.990Z,100710.02
2023-05-14T16:33:37.902Z,100694.08
2023-05-14T16:38:52.306Z,100686.24
2023-05-14T16:44:03.578Z,100679.45
2023-05-14T16:49:06.792Z,100681.80
2023-05-14T16:54:09.904Z,100680.02
2023-05-14T16:59:12.725Z,100678.63
2023-05-14T17:04:17.745Z,100674.11
2023-05-14T17:09:20.946Z,100676.95
2023-05-14T17:14:23.915Z,100671.02
2023-05-14T17:19:26.892Z,100662.44
2023-05-14T17:24:29.685Z,100663.63
2023-05-14T17:29:32.498Z,100672.39
2023-05-14T17:34:35.406Z,100670.94
2023-05-14T17:39:38.291Z,100671.47
2023-05-14T17:44:41.034Z,100675.52
2023-05-14T17:49:43.878Z,100672.36
2023-05-14T17:54:46.806Z,100668.86
2023-05-14T17:59:49.577Z,100665.03
2023-05-14T18:04:52.538Z,100661.52
2023-05-14T18:09:55.413Z,100658.08
2023-05-14T18:14:58.198Z,100660.92
2023-05-14T18:20:00.968Z,100658.56
2023-05-14T18:25:04.345Z,100658.95
2023-05-14T18:30:08.946Z,100662.04
2023-05-14T18:35:12.335Z,100662.98
2023-05-14T18:40:16.997Z,100663.27
2023-05-14T18:45:22.558Z,100659.61
2023-05-14T18:50:25.847Z,100659.81
2023-05-14T18:55:28.895Z,100657.45
2023-05-14T19:00:31.992Z,100661.14
2023-05-14T19:05:34.939Z,100660.52
2023-05-14T19:10:37.780Z,100654.20
2023-05-14T19:15:40.855Z,100650.91
2023-05-14T19:20:46.263Z,100647.23
2023-05-14T19:25:49.105Z,100639.41
2023-05-14T19:30:53.338Z,100635.75
2023-05-14T19:35:56.341Z,100636.66
2023-05-14T19:40:59.308Z,100630.07
2023-05-14T19:46:04.474Z,100627.73
2023-05-14T19:51:08.604Z,100627.95
2023-05-14T19:56:11.508Z,100628.43
2023-05-14T20:01:14.799Z,100626.91
2023-05-14T20:06:18.510Z,100626.27
2023-05-14T20:11:21.604Z,100623.73
2023-05-14T20:16:24.734Z,100620.67
2023-05-14T20:21:27.530Z,100617.66
2023-05-14T20:26:30.561Z,100615.33
2023-05-14T20:31:33.460Z,100612.95
2023-05-14T20:36:36.284Z,100611.50
2023-05-14T20:41:39.105Z,100606.27
2023-05-14T20:46:41.968Z,100595.95
2023-05-14T20:51:44.933Z,100589.15
2023-05-14T20:56:47.717Z,100583.77
2023-05-14T21:01:51.006Z,100577.26
2023-05-14T21:06:54.137Z,100569.55
2023-05-14T21:11:57.119Z,100565.02
2023-05-14T21:17:00.163Z,100560.24
2023-05-14T21:22:02.988Z,100557.34
2023-05-14T21:27:06.016Z,100552.70
2023-05-14T21:32:08.941Z,100550.55
2023-05-14T21:37:11.737Z,100550.19
2023-05-14T21:42:16.171Z,100548.52
2023-05-14T21:47:19.973Z,100543.81
2023-05-14T21:52:22.837Z,100539.14
2023-05-14T21:57:28.240Z,100537.13
2023-05-14T22:02:32.147Z,100523.69
2023-05-14T22:07:35.088Z,100519.48
2023-05-14T22:12:37.934Z,100513.52
2023-05-14T22:17:41.409Z,100511.21
2023-05-14T22:22:44.241Z,100508.27
2023-05-14T22:27:47.018Z,100500.23
2023-05-14T22:32:49.798Z,100497.14
2023-05-14T22:37:52.640Z,100490.73
2023-05-14T22:42:55.460Z,100484.77
2023-05-14T22:47:58.503Z,100479.32
2023-05-14T22:53:01.246Z,100473.28
2023-05-14T22:58:04.122Z,100470.55
2023-05-14T23:03:06.979Z,100460.24
2023-05-14T23:08:10.724Z,100453.71
2023-05-14T23:13:13.526Z,100444.98
2023-05-14T23:18:16.577Z,100439.71
2023-05-14T23:23:20.554Z,100435.20
2023-05-14T23:28:23.273Z,100426.77
2023-05-14T23:33:26.624Z,100422.62
2023-05-14T23:38:29.404Z,100412.25
2023-05-14T23:43:33.873Z,100407.38
2023-05-14T23:48:36.733Z,100401.70
2023-05-14T23:53:39.615Z,100396.71
2023-05-14T23:58:42.485Z,100389.34
